createdAt,value
2019-01-15T00:00:07.754Z,0.83
2019-01-15T00:02:35.222Z,1.07
2019-01-15T00:05:02.873Z,0.90
2019-01-15T00:07:30.244Z,1.40
2019-01-15T00:09:57.551Z,1.23
2019-01-15T00:12:24.877Z,1.50
2019-01-15T00:14:52.300Z,0.70
2019-01-15T00:19:44.924Z,2.10
2019-01-15T00:22:12.277Z,2.13
2019-01-15T00:24:39.598Z,2.50
2019-01-15T00:27:06.968Z,1.93
2019-01-15T00:29:34.369Z,2.00
2019-01-15T00:32:01.719Z,1.00
2019-01-15T00:34:29.040Z,0.60
2019-01-15T00:36:57.033Z,0.60
2019-01-15T00:39:24.361Z,0.60
2019-01-15T00:41:51.707Z,0.70
2019-01-15T00:44:19.404Z,0.43
2019-01-15T00:46:46.799Z,0.60
2019-01-15T00:49:14.538Z,0.63
2019-01-15T00:51:41.919Z,0.70
2019-01-15T00:54:09.288Z,0.67
2019-01-15T00:56:37.297Z,0.90
2019-01-15T00:59:04.690Z,0.60
2019-01-15T01:01:32.051Z,0.50
2019-01-15T01:03:59.401Z,0.80
2019-01-15T01:06:26.804Z,0.47
2019-01-15T01:08:54.119Z,0.70
2019-01-15T01:11:21.428Z,0.60
2019-01-15T01:13:50.425Z,0.70
2019-01-15T01:16:17.952Z,0.50
2019-01-15T01:18:45.296Z,0.70
2019-01-15T01:21:12.686Z,0.73
2019-01-15T01:23:40.025Z,0.40
2019-01-15T01:26:07.385Z,0.67
2019-01-15T01:28:34.737Z,0.77
2019-01-15T01:31:02.114Z,0.83
2019-01-15T01:33:29.434Z,0.90
2019-01-15T01:35:56.828Z,0.90
2019-01-15T01:38:24.210Z,0.93
2019-01-15T01:40:51.527Z,1.40
2019-01-15T01:43:18.925Z,1.30
2019-01-15T01:45:46.338Z,1.00
2019-01-15T01:48:13.665Z,1.10
2019-01-15T01:50:41.045Z,1.20
2019-01-15T01:53:08.381Z,1.37
2019-01-15T01:55:35.715Z,1.57
2019-01-15T01:58:03.097Z,1.73
2019-01-15T02:00:30.556Z,1.50
2019-01-15T02:02:57.898Z,1.60
2019-01-15T02:05:25.338Z,1.40
2019-01-15T02:07:52.679Z,1.30
2019-01-15T02:10:20.185Z,1.27
2019-01-15T02:12:47.932Z,1.30
2019-01-15T02:15:17.802Z,1.60
2019-01-15T02:17:45.218Z,1.10
2019-01-15T02:20:14.592Z,1.60
2019-01-15T02:22:42.056Z,1.40
2019-01-15T02:25:09.777Z,1.60
2019-01-15T02:27:40.223Z,1.50
2019-01-15T02:30:10.240Z,1.60
2019-01-15T02:32:37.607Z,1.30
2019-01-15T02:35:05.452Z,1.07
2019-01-15T02:37:32.822Z,1.13
2019-01-15T02:40:00.232Z,1.60
2019-01-15T02:42:27.673Z,0.83
2019-01-15T02:44:55.173Z,1.00
2019-01-15T02:47:22.554Z,0.90
2019-01-15T02:49:49.958Z,1.00
2019-01-15T02:52:17.313Z,0.73
2019-01-15T02:54:44.686Z,0.80
2019-01-15T02:57:12.094Z,0.90
2019-01-15T02:59:39.462Z,0.70
2019-01-15T03:02:06.833Z,0.83
2019-01-15T03:04:34.253Z,0.80
2019-01-15T03:07:01.638Z,0.60
2019-01-15T03:09:29.013Z,0.63
2019-01-15T03:11:56.413Z,0.60
2019-01-15T03:14:23.792Z,1.10
2019-01-15T03:16:51.158Z,0.87
2019-01-15T03:19:19.752Z,0.83
2019-01-15T03:21:47.542Z,0.80
2019-01-15T03:24:14.898Z,0.87
2019-01-15T03:26:42.295Z,0.80
2019-01-15T03:29:09.632Z,0.90
2019-01-15T03:31:37.020Z,1.00
2019-01-15T03:34:04.457Z,1.37
2019-01-15T03:36:31.797Z,1.80
2019-01-15T03:38:59.154Z,1.60
2019-01-15T03:41:26.564Z,1.87
2019-01-15T03:43:53.918Z,2.37
2019-01-15T03:46:21.279Z,2.17
2019-01-15T03:48:48.657Z,2.80
2019-01-15T03:51:16.016Z,3.13
2019-01-15T03:53:43.381Z,2.70
2019-01-15T03:56:10.757Z,3.10
2019-01-15T03:58:38.143Z,3.10
2019-01-15T04:01:05.492Z,3.63
2019-01-15T04:03:32.899Z,4.20
2019-01-15T04:06:00.220Z,3.87
2019-01-15T04:08:27.560Z,3.10
2019-01-15T04:10:54.915Z,2.80
2019-01-15T04:13:22.272Z,3.10
2019-01-15T04:15:49.629Z,2.80
2019-01-15T04:18:17.012Z,3.40
2019-01-15T04:20:44.315Z,3.00
2019-01-15T04:23:11.701Z,2.90
2019-01-15T04:25:39.103Z,3.10
2019-01-15T04:28:06.428Z,3.20
2019-01-15T04:30:33.786Z,2.53
2019-01-15T04:33:01.136Z,2.10
2019-01-15T04:35:28.465Z,1.73
2019-01-15T04:37:55.799Z,1.50
2019-01-15T04:40:23.190Z,1.60
2019-01-15T04:42:50.714Z,1.70
2019-01-15T04:45:19.920Z,1.40
2019-01-15T04:47:47.309Z,1.30
2019-01-15T04:50:15.231Z,2.77
2019-01-15T04:52:44.543Z,2.87
2019-01-15T04:55:12.000Z,3.20
2019-01-15T04:57:39.338Z,3.60
2019-01-15T05:00:10.340Z,3.50
2019-01-15T05:02:39.111Z,3.20
2019-01-15T05:05:06.626Z,3.63
2019-01-15T05:07:33.955Z,3.30
2019-01-15T05:10:02.025Z,3.60
2019-01-15T05:12:29.363Z,4.10
2019-01-15T05:14:56.695Z,2.90
2019-01-15T05:17:24.055Z,1.60
2019-01-15T05:19:51.395Z,1.77
2019-01-15T05:22:18.758Z,1.77
2019-01-15T05:24:46.139Z,1.83
2019-01-15T05:27:13.475Z,4.43
2019-01-15T05:29:40.787Z,4.80
2019-01-15T05:32:08.115Z,6.27
2019-01-15T05:34:35.455Z,6.00
2019-01-15T05:37:03.235Z,5.40
2019-01-15T05:39:30.595Z,5.47
2019-01-15T05:41:57.989Z,5.40
2019-01-15T05:44:25.296Z,4.77
2019-01-15T05:46:53.735Z,5.13
2019-01-15T05:49:21.064Z,5.27
2019-01-15T05:51:48.410Z,5.60
2019-01-15T05:54:15.811Z,4.93
2019-01-15T05:56:43.113Z,4.87
2019-01-15T05:59:10.439Z,5.20
2019-01-15T06:01:38.140Z,5.27
2019-01-15T06:04:05.660Z,5.20
2019-01-15T06:06:33.065Z,5.27
2019-01-15T06:09:00.555Z,5.70
2019-01-15T06:11:28.061Z,5.23
2019-01-15T06:13:55.415Z,5.10
2019-01-15T06:16:22.824Z,5.70
2019-01-15T06:18:50.200Z,6.23
2019-01-15T06:21:17.548Z,5.77
2019-01-15T06:23:44.966Z,6.37
2019-01-15T06:26:12.368Z,6.37
2019-01-15T06:28:40.059Z,7.17
2019-01-15T06:31:08.328Z,7.47
2019-01-15T06:33:35.743Z,8.00
2019-01-15T06:36:03.365Z,8.90
2019-01-15T06:38:30.775Z,9.83
2019-01-15T06:40:58.158Z,10.13
2019-01-15T06:43:25.507Z,9.83
2019-01-15T06:45:52.965Z,10.53
2019-01-15T06:48:20.335Z,9.30
2019-01-15T06:50:47.694Z,9.70
2019-01-15T06:53:15.133Z,10.40
2019-01-15T06:55:42.483Z,9.80
2019-01-15T06:58:09.964Z,8.70
2019-01-15T07:00:37.418Z,8.90
2019-01-15T07:03:04.825Z,9.10
2019-01-15T07:05:34.098Z,8.77
2019-01-15T07:08:01.626Z,8.97
2019-01-15T07:10:34.607Z,9.37
2019-01-15T07:13:01.988Z,9.97
2019-01-15T07:15:29.424Z,9.80
2019-01-15T07:17:56.818Z,9.20
2019-01-15T07:20:24.339Z,10.37
2019-01-15T07:22:51.864Z,10.20
2019-01-15T07:25:19.791Z,9.17
2019-01-15T07:27:47.174Z,8.80
2019-01-15T07:30:17.651Z,9.10
2019-01-15T07:32:45.010Z,10.00
2019-01-15T07:35:12.340Z,8.80
2019-01-15T07:37:39.742Z,10.23
2019-01-15T07:40:08.346Z,10.43
2019-01-15T07:42:35.662Z,10.27
2019-01-15T07:45:03.659Z,9.97
2019-01-15T07:47:31.054Z,9.87
2019-01-15T07:49:58.438Z,8.73
2019-01-15T07:52:25.807Z,10.63
2019-01-15T07:54:57.396Z,10.07
2019-01-15T07:57:48.666Z,10.20
2019-01-15T08:00:19.219Z,9.70
2019-01-15T08:02:49.203Z,9.33
2019-01-15T08:05:19.054Z,9.27
2019-01-15T08:07:47.684Z,8.43
2019-01-15T08:10:17.191Z,8.43
2019-01-15T08:12:46.604Z,8.00
2019-01-15T08:15:18.763Z,8.77
2019-01-15T08:17:47.567Z,8.60
2019-01-15T08:20:16.186Z,7.40
2019-01-15T08:22:44.713Z,7.90
2019-01-15T08:26:14.823Z,8.00
2019-01-15T08:28:43.227Z,7.60
2019-01-15T08:31:11.754Z,6.70
2019-01-15T08:33:40.194Z,6.63
2019-01-15T08:36:08.666Z,6.80
2019-01-15T08:38:37.195Z,7.23
2019-01-15T08:41:05.724Z,6.90
2019-01-15T08:43:34.244Z,7.10
2019-01-15T08:46:02.740Z,7.30
2019-01-15T08:48:32.764Z,6.57
2019-01-15T08:51:01.992Z,6.40
2019-01-15T08:53:30.654Z,5.97
2019-01-15T08:56:00.217Z,5.90
2019-01-15T08:58:28.734Z,6.23
2019-01-15T09:00:57.164Z,6.00
2019-01-15T09:03:25.745Z,5.90
2019-01-15T09:05:54.244Z,5.60
2019-01-15T09:08:22.895Z,5.67
2019-01-15T09:10:51.577Z,5.87
2019-01-15T09:13:20.058Z,5.90
2019-01-15T09:15:48.580Z,5.83
2019-01-15T09:18:17.121Z,5.67
2019-01-15T09:20:45.514Z,6.07
2019-01-15T09:23:13.926Z,6.27
2019-01-15T09:25:42.524Z,5.90
2019-01-15T09:28:11.026Z,5.80
2019-01-15T09:30:39.482Z,6.93
2019-01-15T09:33:07.974Z,5.70
2019-01-15T09:35:36.364Z,6.17
2019-01-15T09:38:06.587Z,7.00
2019-01-15T09:40:35.165Z,7.70
2019-01-15T09:43:03.659Z,7.40
2019-01-15T09:45:32.631Z,7.50
2019-01-15T09:48:03.332Z,6.40
2019-01-15T09:50:31.964Z,5.87
2019-01-15T09:53:01.803Z,5.90
2019-01-15T09:55:30.301Z,5.13
2019-01-15T09:57:58.859Z,4.70
2019-01-15T10:02:16.646Z,4.73
2019-01-15T10:04:45.482Z,5.83
2019-01-15T10:07:14.120Z,5.67
2019-01-15T10:09:42.884Z,6.43
2019-01-15T10:12:11.753Z,5.83
2019-01-15T10:14:41.404Z,4.73
2019-01-15T10:17:10.385Z,5.17
2019-01-15T10:19:39.144Z,4.67
2019-01-15T10:22:07.998Z,5.03
2019-01-15T10:24:37.214Z,5.30
2019-01-15T10:27:06.762Z,5.93
2019-01-15T10:29:35.731Z,6.13
2019-01-15T10:33:00.884Z,8.57
2019-01-15T10:35:52.608Z,7.90
2019-01-15T10:38:24.195Z,6.90
2019-01-15T10:40:56.798Z,6.53
2019-01-15T10:43:27.064Z,6.10
2019-01-15T10:45:56.298Z,5.53
2019-01-15T10:48:24.891Z,5.87
2019-01-15T10:50:53.839Z,5.97
2019-01-15T10:53:22.862Z,5.67
2019-01-15T10:55:51.565Z,5.50
2019-01-15T10:58:20.396Z,5.00
2019-01-15T11:00:49.215Z,5.07
2019-01-15T11:03:18.144Z,5.23
2019-01-15T11:05:47.384Z,5.07
2019-01-15T11:08:16.179Z,4.80
2019-01-15T11:10:44.944Z,5.07
2019-01-15T11:13:13.754Z,4.83
2019-01-15T11:15:43.470Z,5.77
2019-01-15T11:18:12.759Z,5.43
2019-01-15T11:20:41.434Z,5.03
2019-01-15T11:23:10.053Z,5.70
2019-01-15T11:25:40.777Z,5.07
2019-01-15T11:28:09.454Z,4.83
2019-01-15T11:30:38.300Z,5.83
2019-01-15T11:33:07.066Z,5.20
2019-01-15T11:35:35.874Z,5.20
2019-01-15T11:38:05.611Z,4.93
2019-01-15T11:40:34.370Z,5.20
2019-01-15T11:43:06.017Z,5.87
2019-01-15T11:45:34.787Z,5.03
2019-01-15T11:48:04.559Z,5.33
2019-01-15T11:50:33.348Z,5.00
2019-01-15T11:53:03.329Z,5.07
2019-01-15T11:55:32.060Z,6.33
2019-01-15T11:58:00.760Z,5.67
2019-01-15T12:00:52.494Z,6.53
2019-01-15T12:03:26.880Z,5.53
2019-01-15T12:06:20.765Z,5.43
2019-01-15T12:09:07.755Z,5.20
2019-01-15T12:12:04.764Z,5.30
2019-01-15T12:14:51.475Z,5.37
2019-01-15T12:17:42.505Z,5.10
2019-01-15T12:20:29.834Z,5.60
2019-01-15T12:23:14.477Z,5.50
2019-01-15T12:26:09.790Z,4.77
2019-01-15T12:29:00.730Z,4.80
2019-01-15T12:31:54.772Z,5.33
2019-01-15T12:34:39.259Z,5.13
2019-01-15T12:37:26.161Z,5.00
2019-01-15T12:40:29.761Z,4.90
2019-01-15T12:43:17.911Z,4.70
2019-01-15T12:45:54.845Z,5.20
2019-01-15T12:48:50.618Z,5.47
2019-01-15T12:51:50.940Z,5.23
2019-01-15T12:54:51.437Z,4.83
2019-01-15T12:57:38.447Z,5.03
2019-01-15T13:00:29.720Z,4.70
2019-01-15T13:03:36.187Z,4.70
2019-01-15T13:06:40.489Z,4.10
2019-01-15T13:09:28.848Z,4.80
2019-01-15T13:12:13.418Z,4.13
2019-01-15T13:15:00.503Z,4.80
2019-01-15T13:17:43.634Z,4.57
2019-01-15T13:20:32.320Z,4.23
2019-01-15T13:23:19.245Z,4.27
2019-01-15T13:26:16.433Z,4.13
2019-01-15T13:29:07.252Z,4.00
2019-01-15T13:31:53.426Z,5.60
2019-01-15T13:34:33.094Z,5.17
2019-01-15T13:37:19.821Z,9.37
2019-01-15T13:40:04.494Z,16.93
2019-01-15T13:42:55.470Z,13.23
2019-01-15T13:46:00.797Z,7.87
2019-01-15T13:48:47.422Z,5.67
2019-01-15T13:51:41.333Z,4.90
2019-01-15T13:54:29.345Z,4.80
2019-01-15T13:57:26.745Z,4.40
2019-01-15T14:00:12.716Z,5.07
2019-01-15T14:06:03.762Z,5.57
2019-01-15T14:08:45.333Z,4.50
2019-01-15T14:11:36.311Z,5.20
2019-01-15T14:14:33.614Z,4.53
2019-01-15T14:17:14.385Z,4.93
2019-01-15T14:20:01.335Z,5.07
2019-01-15T14:22:48.245Z,4.93
2019-01-15T14:25:48.617Z,5.47
2019-01-15T14:28:25.395Z,5.83
2019-01-15T14:31:13.659Z,6.10
2019-01-15T14:34:10.627Z,5.97
2019-01-15T14:36:57.302Z,6.10
2019-01-15T14:39:48.564Z,5.93
2019-01-15T14:42:47.217Z,6.10
2019-01-15T14:45:35.542Z,5.33
2019-01-15T14:48:23.287Z,5.27
2019-01-15T14:51:10.295Z,5.47
2019-01-15T14:53:57.296Z,5.90
2019-01-15T14:56:46.598Z,5.00
2019-01-15T14:59:37.859Z,4.83
2019-01-15T15:02:28.146Z,4.50
2019-01-15T15:05:25.256Z,3.90
2019-01-15T15:08:11.994Z,4.03
2019-01-15T15:10:56.612Z,3.57
2019-01-15T15:13:56.848Z,3.90
2019-01-15T15:16:44.082Z,3.67
2019-01-15T15:19:31.221Z,3.40
2019-01-15T15:22:25.616Z,3.37
2019-01-15T15:25:27.112Z,3.50
2019-01-15T15:28:14.566Z,3.50
2019-01-15T15:31:13.663Z,3.33
2019-01-15T15:34:00.402Z,3.00
2019-01-15T15:36:51.572Z,2.73
2019-01-15T15:39:36.521Z,2.60
2019-01-15T15:42:40.298Z,2.37
2019-01-15T15:45:20.751Z,2.40
2019-01-15T15:48:22.626Z,2.10
2019-01-15T15:51:26.287Z,2.00
2019-01-15T15:54:26.741Z,2.50
2019-01-15T15:57:21.679Z,3.03
2019-01-15T16:00:22.067Z,2.50
2019-01-15T16:03:13.195Z,2.60
2019-01-15T16:05:57.641Z,1.90
2019-01-15T16:08:44.764Z,2.10
2019-01-15T16:11:42.267Z,2.20
2019-01-15T16:14:29.667Z,2.03
2019-01-15T16:17:20.604Z,2.50
2019-01-15T16:20:27.095Z,2.43
2019-01-15T16:23:13.672Z,2.30
2019-01-15T16:26:07.895Z,2.30
2019-01-15T16:28:55.789Z,1.60
2019-01-15T16:31:46.935Z,2.30
2019-01-15T16:34:33.668Z,3.03
2019-01-15T16:37:14.581Z,3.80
2019-01-15T16:40:11.564Z,6.33
2019-01-15T16:42:50.598Z,5.03
2019-01-15T16:45:37.265Z,4.80
2019-01-15T16:48:25.021Z,4.70
2019-01-15T16:51:06.927Z,3.47
2019-01-15T16:53:46.479Z,4.47
2019-01-15T16:56:37.329Z,3.27
2019-01-15T16:59:19.959Z,4.00
2019-01-15T17:02:28.005Z,4.07
2019-01-15T17:05:15.114Z,3.70
2019-01-15T17:08:01.688Z,3.70
2019-01-15T17:10:52.553Z,2.30
2019-01-15T17:13:43.655Z,2.47
2019-01-15T17:16:33.512Z,2.37
2019-01-15T17:19:21.517Z,3.87
2019-01-15T17:22:13.863Z,4.80
2019-01-15T17:25:04.150Z,3.17
2019-01-15T17:28:10.427Z,3.20
2019-01-15T17:30:57.142Z,2.80
2019-01-15T17:33:44.035Z,2.63
2019-01-15T17:36:32.331Z,2.67
2019-01-15T17:39:23.656Z,2.73
2019-01-15T17:42:15.636Z,3.17
2019-01-15T17:45:02.585Z,2.90
2019-01-15T17:47:53.626Z,2.60
2019-01-15T17:50:40.834Z,2.87
2019-01-15T17:53:35.105Z,3.17
2019-01-15T17:56:26.966Z,3.47
2019-01-15T17:59:21.965Z,2.97
2019-01-15T18:02:10.684Z,2.77
2019-01-15T18:05:08.313Z,2.90
2019-01-15T18:07:59.566Z,2.87
2019-01-15T18:11:00.231Z,3.60
2019-01-15T18:14:07.631Z,3.30
2019-01-15T18:17:01.614Z,3.67
2019-01-15T18:19:48.627Z,3.87
2019-01-15T18:22:35.587Z,4.40
2019-01-15T18:25:23.625Z,4.17
2019-01-15T18:28:14.698Z,4.60
2019-01-15T18:31:20.906Z,4.50
2019-01-15T18:34:28.688Z,4.47
2019-01-15T18:37:17.372Z,4.77
2019-01-15T18:40:15.120Z,5.47
2019-01-15T18:43:05.963Z,6.07
2019-01-15T18:50:31.321Z,5.57
2019-01-15T18:53:25.823Z,5.50
2019-01-15T18:56:28.530Z,6.50
2019-01-15T18:59:19.664Z,6.37
2019-01-15T19:03:39.493Z,5.87
2019-01-15T19:06:35.841Z,5.20
2019-01-15T19:09:25.813Z,6.10
2019-01-15T19:12:07.780Z,6.33
2019-01-15T19:14:53.680Z,5.90
2019-01-15T19:17:39.335Z,6.80
2019-01-15T19:20:45.977Z,6.57
2019-01-15T19:23:33.377Z,5.97
2019-01-15T19:26:36.050Z,5.37
2019-01-15T19:29:22.629Z,4.73
2019-01-15T19:32:28.216Z,4.17
2019-01-15T19:35:18.516Z,2.90
2019-01-15T19:38:04.567Z,2.50
2019-01-15T19:40:50.637Z,2.10
2019-01-15T19:43:50.525Z,1.83
2019-01-15T19:46:46.915Z,2.10
2019-01-15T19:49:24.463Z,2.07
2019-01-15T19:52:18.496Z,1.40
2019-01-15T19:55:14.773Z,1.90
2019-01-15T19:58:04.727Z,1.67
2019-01-15T20:00:57.825Z,4.50
2019-01-15T20:03:50.112Z,5.03
2019-01-15T20:06:24.856Z,5.90
2019-01-15T20:09:21.019Z,4.80
2019-01-15T20:12:04.073Z,5.87
2019-01-15T20:15:03.414Z,4.60
2019-01-15T20:17:42.661Z,4.93
2019-01-15T20:20:35.099Z,5.30
2019-01-15T20:23:27.039Z,5.47
2019-01-15T20:26:23.444Z,4.50
2019-01-15T20:29:09.344Z,3.53
2019-01-15T20:31:56.466Z,2.70
2019-01-15T20:34:58.871Z,2.90
2019-01-15T20:37:37.040Z,2.80
2019-01-15T20:40:29.787Z,4.30
2019-01-15T20:43:07.040Z,4.30
2019-01-15T20:46:03.592Z,5.37
2019-01-15T20:48:43.078Z,4.70
2019-01-15T20:51:29.503Z,5.73
2019-01-15T20:54:11.957Z,6.13
2019-01-15T20:57:11.213Z,5.57
2019-01-15T20:59:54.964Z,5.83
2019-01-15T21:02:48.109Z,5.33
2019-01-15T21:05:36.833Z,4.90
2019-01-15T21:08:16.509Z,5.70
2019-01-15T21:11:06.810Z,5.63
2019-01-15T21:13:59.992Z,8.00
2019-01-15T21:16:45.622Z,9.17
2019-01-15T21:19:27.786Z,9.47
2019-01-15T21:22:16.411Z,9.60
2019-01-15T21:25:03.490Z,9.10
2019-01-15T21:27:45.449Z,9.57
2019-01-15T21:30:42.683Z,9.07
2019-01-15T21:33:47.591Z,10.83
2019-01-15T21:36:37.549Z,10.30
2019-01-15T21:39:17.499Z,10.10
2019-01-15T21:42:13.131Z,10.50
2019-01-15T21:44:58.352Z,10.13
2019-01-15T21:47:45.284Z,9.70
2019-01-15T21:50:50.324Z,9.43
2019-01-15T21:53:43.226Z,9.57
2019-01-15T21:56:31.659Z,9.60
2019-01-15T21:59:18.648Z,9.20
2019-01-15T22:02:11.607Z,9.27
2019-01-15T22:04:55.905Z,9.40
2019-01-15T22:07:41.115Z,10.00
2019-01-15T22:10:40.108Z,10.00
2019-01-15T22:13:33.067Z,9.93
2019-01-15T22:16:18.734Z,10.33
2019-01-15T22:19:14.667Z,9.43
2019-01-15T22:22:10.876Z,9.30
2019-01-15T22:24:56.307Z,8.57
2019-01-15T22:27:35.987Z,9.30
2019-01-15T22:30:36.861Z,9.17
2019-01-15T22:33:29.619Z,10.13
2019-01-15T22:36:19.907Z,10.07
2019-01-15T22:39:06.847Z,9.50
2019-01-15T22:41:53.130Z,9.27
2019-01-15T22:44:45.721Z,9.80
2019-01-15T22:47:44.488Z,9.10
2019-01-15T22:50:40.547Z,9.50
2019-01-15T22:53:33.311Z,9.53
2019-01-15T22:56:20.210Z,9.33
2019-01-15T22:59:12.758Z,9.40
2019-01-15T23:02:02.397Z,9.70
2019-01-15T23:04:52.178Z,10.13
2019-01-15T23:07:37.919Z,10.23
2019-01-15T23:10:29.178Z,9.23
2019-01-15T23:13:04.367Z,9.13
2019-01-15T23:15:44.764Z,9.80
2019-01-15T23:18:43.645Z,9.03
2019-01-15T23:21:48.729Z,8.87
2019-01-15T23:24:34.535Z,9.30
2019-01-15T23:27:21.375Z,8.87
2019-01-15T23:30:08.236Z,8.40
2019-01-15T23:32:53.988Z,7.97
2019-01-15T23:35:43.687Z,8.20
2019-01-15T23:38:30.539Z,8.43
2019-01-15T23:41:16.254Z,9.27
2019-01-15T23:44:03.128Z,9.23
2019-01-15T23:46:39.507Z,9.20
2019-01-15T23:49:32.224Z,9.03
2019-01-15T23:52:37.379Z,9.33
2019-01-15T23:55:37.807Z,8.87
2019-01-15T23:58:24.711Z,9.10
